sensor_id;sensor_type;location;lat;lon;timestamp;P1;durP1;ratioP1;P2;durP2;ratioP2
27161;SDS011;54464;50.558;9.704;2023-05-07T00:01:07;2.73;;;1.63;;
27161;SDS011;54464;50.558;9.704;2023-05-07T00:03:33;3.50;;;2.10;;
27161;SDS011;54464;50.558;9.704;2023-05-07T00:05:58;2.50;;;2.20;;
27161;SDS011;54464;50.558;9.704;2023-05-07T00:08:24;2.20;;;1.90;;
27161;SDS011;54464;50.558;9.704;2023-05-07T00:10:49;3.20;;;2.23;;
27161;SDS011;54464;50.558;9.704;2023-05-07T00:13:15;2.50;;;2.00;;
27161;SDS011;54464;50.558;9.704;2023-05-07T00:15:40;3.10;;;2.20;;
27161;SDS011;54464;50.558;9.704;2023-05-07T00:18:06;2.83;;;2.33;;
27161;SDS011;54464;50.558;9.704;2023-05-07T00:20:31;2.60;;;2.33;;
27161;SDS011;54464;50.558;9.704;2023-05-07T00:22:57;2.60;;;2.30;;
27161;SDS011;54464;50.558;9.704;2023-05-07T00:25:22;3.17;;;2.57;;
27161;SDS011;54464;50.558;9.704;2023-05-07T00:27:48;4.47;;;2.90;;
27161;SDS011;54464;50.558;9.704;2023-05-07T00:30:14;4.60;;;2.83;;
27161;SDS011;54464;50.558;9.704;2023-05-07T00:32:39;3.23;;;2.70;;
27161;SDS011;54464;50.558;9.704;2023-05-07T00:35:05;2.97;;;2.67;;
27161;SDS011;54464;50.558;9.704;2023-05-07T00:37:31;2.70;;;2.47;;
27161;SDS011;54464;50.558;9.704;2023-05-07T00:39:57;2.63;;;2.43;;
27161;SDS011;54464;50.558;9.704;2023-05-07T00:42:23;3.93;;;2.60;;
27161;SDS011;54464;50.558;9.704;2023-05-07T00:44:49;3.23;;;2.63;;
27161;SDS011;54464;50.558;9.704;2023-05-07T00:47:15;2.80;;;2.60;;
27161;SDS011;54464;50.558;9.704;2023-05-07T00:49:42;2.97;;;2.77;;
27161;SDS011;54464;50.558;9.704;2023-05-07T00:52:11;3.80;;;2.63;;
27161;SDS011;54464;50.558;9.704;2023-05-07T00:54:40;2.87;;;2.67;;
27161;SDS011;54464;50.558;9.704;2023-05-07T00:57:06;3.63;;;2.90;;
27161;SDS011;54464;50.558;9.704;2023-05-07T00:59:36;3.43;;;2.80;;
27161;SDS011;54464;50.558;9.704;2023-05-07T01:02:01;4.07;;;3.67;;
27161;SDS011;54464;50.558;9.704;2023-05-07T01:04:27;4.80;;;3.97;;
27161;SDS011;54464;50.558;9.704;2023-05-07T01:06:53;4.90;;;4.50;;
27161;SDS011;54464;50.558;9.704;2023-05-07T01:09:21;5.17;;;4.20;;
27161;SDS011;54464;50.558;9.704;2023-05-07T01:11:49;4.97;;;4.03;;
27161;SDS011;54464;50.558;9.704;2023-05-07T01:14:16;5.80;;;4.00;;
27161;SDS011;54464;50.558;9.704;2023-05-07T01:16:43;4.47;;;3.73;;
27161;SDS011;54464;50.558;9.704;2023-05-07T01:19:09;4.50;;;4.10;;
27161;SDS011;54464;50.558;9.704;2023-05-07T01:21:36;4.80;;;3.97;;
27161;SDS011;54464;50.558;9.704;2023-05-07T01:24:03;4.87;;;4.40;;
27161;SDS011;54464;50.558;9.704;2023-05-07T01:26:30;5.40;;;4.90;;
27161;SDS011;54464;50.558;9.704;2023-05-07T01:28:55;5.57;;;5.07;;
27161;SDS011;54464;50.558;9.704;2023-05-07T01:31:21;5.03;;;4.40;;
27161;SDS011;54464;50.558;9.704;2023-05-07T01:33:49;4.70;;;4.27;;
27161;SDS011;54464;50.558;9.704;2023-05-07T01:36:17;5.53;;;5.00;;
27161;SDS011;54464;50.558;9.704;2023-05-07T01:38:45;5.73;;;5.20;;
27161;SDS011;54464;50.558;9.704;2023-05-07T01:41:12;5.53;;;5.03;;
27161;SDS011;54464;50.558;9.704;2023-05-07T01:43:38;4.60;;;4.20;;
27161;SDS011;54464;50.558;9.704;2023-05-07T01:46:06;6.37;;;5.30;;
27161;SDS011;54464;50.558;9.704;2023-05-07T01:48:33;5.90;;;5.30;;
27161;SDS011;54464;50.558;9.704;2023-05-07T01:51:00;5.50;;;5.00;;
27161;SDS011;54464;50.558;9.704;2023-05-07T01:53:27;5.93;;;5.10;;
27161;SDS011;54464;50.558;9.704;2023-05-07T01:55:53;5.53;;;5.03;;
27161;SDS011;54464;50.558;9.704;2023-05-07T01:58:19;6.87;;;5.20;;
27161;SDS011;54464;50.558;9.704;2023-05-07T02:00:44;5.50;;;5.00;;
27161;SDS011;54464;50.558;9.704;2023-05-07T02:03:10;5.93;;;5.37;;
27161;SDS011;54464;50.558;9.704;2023-05-07T02:05:35;5.53;;;5.03;;
27161;SDS011;54464;50.558;9.704;2023-05-07T02:08:01;5.43;;;4.53;;
27161;SDS011;54464;50.558;9.704;2023-05-07T02:10:26;5.10;;;4.60;;
27161;SDS011;54464;50.558;9.704;2023-05-07T02:12:52;9.20;;;7.03;;
27161;SDS011;54464;50.558;9.704;2023-05-07T02:15:18;13.37;;;11.00;;
27161;SDS011;54464;50.558;9.704;2023-05-07T02:20:28;13.90;;;11.37;;
27161;SDS011;54464;50.558;9.704;2023-05-07T02:22:54;11.67;;;10.57;;
27161;SDS011;54464;50.558;9.704;2023-05-07T02:25:20;11.53;;;10.33;;
27161;SDS011;54464;50.558;9.704;2023-05-07T02:27:45;10.53;;;9.43;;
27161;SDS011;54464;50.558;9.704;2023-05-07T02:30:11;9.70;;;8.50;;
27161;SDS011;54464;50.558;9.704;2023-05-07T02:32:37;7.43;;;6.73;;
27161;SDS011;54464;50.558;9.704;2023-05-07T02:35:02;6.80;;;6.23;;
27161;SDS011;54464;50.558;9.704;2023-05-07T02:37:28;7.27;;;6.50;;
27161;SDS011;54464;50.558;9.704;2023-05-07T02:39:54;6.90;;;6.30;;
27161;SDS011;54464;50.558;9.704;2023-05-07T02:42:20;8.47;;;6.87;;
27161;SDS011;54464;50.558;9.704;2023-05-07T02:44:45;8.17;;;7.37;;
27161;SDS011;54464;50.558;9.704;2023-05-07T02:47:11;8.00;;;7.20;;
27161;SDS011;54464;50.558;9.704;2023-05-07T02:49:38;9.77;;;7.07;;
27161;SDS011;54464;50.558;9.704;2023-05-07T02:52:03;7.90;;;7.03;;
27161;SDS011;54464;50.558;9.704;2023-05-07T02:54:29;8.07;;;7.07;;
27161;SDS011;54464;50.558;9.704;2023-05-07T02:56:54;8.40;;;6.83;;
27161;SDS011;54464;50.558;9.704;2023-05-07T02:59:21;6.90;;;6.30;;
27161;SDS011;54464;50.558;9.704;2023-05-07T03:01:46;6.47;;;5.93;;
27161;SDS011;54464;50.558;9.704;2023-05-07T03:04:16;6.83;;;6.13;;
27161;SDS011;54464;50.558;9.704;2023-05-07T03:06:42;8.40;;;7.60;;
27161;SDS011;54464;50.558;9.704;2023-05-07T03:09:07;8.73;;;7.83;;
27161;SDS011;54464;50.558;9.704;2023-05-07T03:11:33;9.20;;;8.30;;
27161;SDS011;54464;50.558;9.704;2023-05-07T03:14:00;11.00;;;9.23;;
27161;SDS011;54464;50.558;9.704;2023-05-07T03:16:26;10.97;;;9.83;;
27161;SDS011;54464;50.558;9.704;2023-05-07T03:18:52;12.70;;;10.03;;
27161;SDS011;54464;50.558;9.704;2023-05-07T03:21:17;10.50;;;9.40;;
27161;SDS011;54464;50.558;9.704;2023-05-07T03:23:43;10.93;;;9.83;;
27161;SDS011;54464;50.558;9.704;2023-05-07T03:26:08;9.40;;;8.50;;
27161;SDS011;54464;50.558;9.704;2023-05-07T03:28:34;9.33;;;8.33;;
27161;SDS011;54464;50.558;9.704;2023-05-07T03:31:00;9.00;;;8.10;;
27161;SDS011;54464;50.558;9.704;2023-05-07T03:33:26;9.00;;;8.10;;
27161;SDS011;54464;50.558;9.704;2023-05-07T03:35:52;9.20;;;7.03;;
27161;SDS011;54464;50.558;9.704;2023-05-07T03:38:21;8.53;;;7.63;;
27161;SDS011;54464;50.558;9.704;2023-05-07T03:40:46;7.97;;;7.13;;
27161;SDS011;54464;50.558;9.704;2023-05-07T03:43:12;8.33;;;7.53;;
27161;SDS011;54464;50.558;9.704;2023-05-07T03:45:37;8.10;;;7.30;;
27161;SDS011;54464;50.558;9.704;2023-05-07T03:48:03;9.27;;;8.37;;
27161;SDS011;54464;50.558;9.704;2023-05-07T03:50:29;9.27;;;8.30;;
27161;SDS011;54464;50.558;9.704;2023-05-07T03:52:54;9.83;;;8.53;;
27161;SDS011;54464;50.558;9.704;2023-05-07T03:55:20;9.73;;;8.10;;
27161;SDS011;54464;50.558;9.704;2023-05-07T03:57:46;8.63;;;7.73;;
27161;SDS011;54464;50.558;9.704;2023-05-07T04:00:14;8.97;;;7.67;;
27161;SDS011;54464;50.558;9.704;2023-05-07T04:02:40;8.17;;;7.20;;
27161;SDS011;54464;50.558;9.704;2023-05-07T04:05:06;8.07;;;7.23;;
27161;SDS011;54464;50.558;9.704;2023-05-07T04:07:32;8.17;;;7.37;;
27161;SDS011;54464;50.558;9.704;2023-05-07T04:09:57;8.17;;;7.37;;
27161;SDS011;54464;50.558;9.704;2023-05-07T04:12:23;7.07;;;6.47;;
27161;SDS011;54464;50.558;9.704;2023-05-07T04:14:48;7.03;;;6.33;;
27161;SDS011;54464;50.558;9.704;2023-05-07T04:17:14;6.80;;;5.90;;
27161;SDS011;54464;50.558;9.704;2023-05-07T04:19:40;7.90;;;7.13;;
27161;SDS011;54464;50.558;9.704;2023-05-07T04:22:10;8.47;;;6.93;;
27161;SDS011;54464;50.558;9.704;2023-05-07T04:24:36;8.50;;;7.70;;
27161;SDS011;54464;50.558;9.704;2023-05-07T04:27:01;8.73;;;7.83;;
27161;SDS011;54464;50.558;9.704;2023-05-07T04:29:27;7.90;;;7.07;;
27161;SDS011;54464;50.558;9.704;2023-05-07T04:31:53;8.87;;;7.97;;
27161;SDS011;54464;50.558;9.704;2023-05-07T04:34:21;9.27;;;8.37;;
27161;SDS011;54464;50.558;9.704;2023-05-07T04:36:46;10.00;;;8.40;;
27161;SDS011;54464;50.558;9.704;2023-05-07T04:39:13;9.67;;;8.33;;
27161;SDS011;54464;50.558;9.704;2023-05-07T04:41:38;9.60;;;8.60;;
27161;SDS011;54464;50.558;9.704;2023-05-07T04:44:04;11.73;;;9.63;;
27161;SDS011;54464;50.558;9.704;2023-05-07T04:46:30;13.60;;;10.43;;
27161;SDS011;54464;50.558;9.704;2023-05-07T04:48:56;16.10;;;12.70;;
27161;SDS011;54464;50.558;9.704;2023-05-07T04:51:21;15.13;;;12.63;;
27161;SDS011;54464;50.558;9.704;2023-05-07T04:53:48;16.00;;;13.57;;
27161;SDS011;54464;50.558;9.704;2023-05-07T04:56:13;16.57;;;13.27;;
27161;SDS011;54464;50.558;9.704;2023-05-07T04:58:39;16.63;;;14.07;;
27161;SDS011;54464;50.558;9.704;2023-05-07T05:01:08;16.07;;;13.80;;
27161;SDS011;54464;50.558;9.704;2023-05-07T05:03:33;15.60;;;13.53;;
27161;SDS011;54464;50.558;9.704;2023-05-07T05:05:59;13.10;;;11.80;;
27161;SDS011;54464;50.558;9.704;2023-05-07T05:08:25;12.40;;;11.10;;
27161;SDS011;54464;50.558;9.704;2023-05-07T05:10:50;13.60;;;11.23;;
27161;SDS011;54464;50.558;9.704;2023-05-07T05:13:16;13.80;;;12.37;;
27161;SDS011;54464;50.558;9.704;2023-05-07T05:15:41;14.87;;;13.37;;
27161;SDS011;54464;50.558;9.704;2023-05-07T05:18:07;17.43;;;13.80;;
27161;SDS011;54464;50.558;9.704;2023-05-07T05:20:33;15.10;;;13.27;;
27161;SDS011;54464;50.558;9.704;2023-05-07T05:22:58;16.40;;;13.67;;
27161;SDS011;54464;50.558;9.704;2023-05-07T05:25:24;15.17;;;13.40;;
27161;SDS011;54464;50.558;9.704;2023-05-07T05:27:50;16.97;;;14.47;;
27161;SDS011;54464;50.558;9.704;2023-05-07T05:30:18;18.53;;;15.30;;
27161;SDS011;54464;50.558;9.704;2023-05-07T05:32:43;20.77;;;16.03;;
27161;SDS011;54464;50.558;9.704;2023-05-07T05:35:09;17.70;;;15.27;;
27161;SDS011;54464;50.558;9.704;2023-05-07T05:37:35;18.73;;;15.10;;
27161;SDS011;54464;50.558;9.704;2023-05-07T05:40:01;19.63;;;15.57;;
27161;SDS011;54464;50.558;9.704;2023-05-07T05:42:27;18.07;;;15.43;;
27161;SDS011;54464;50.558;9.704;2023-05-07T05:44:52;18.83;;;15.00;;
27161;SDS011;54464;50.558;9.704;2023-05-07T05:47:18;16.73;;;13.83;;
27161;SDS011;54464;50.558;9.704;2023-05-07T05:49:44;15.27;;;13.53;;
27161;SDS011;54464;50.558;9.704;2023-05-07T05:52:11;16.23;;;13.40;;
27161;SDS011;54464;50.558;9.704;2023-05-07T05:54:37;14.73;;;12.87;;
27161;SDS011;54464;50.558;9.704;2023-05-07T05:57:06;16.03;;;13.90;;
27161;SDS011;54464;50.558;9.704;2023-05-07T05:59:31;15.23;;;12.67;;
27161;SDS011;54464;50.558;9.704;2023-05-07T06:01:57;16.87;;;13.03;;
27161;SDS011;54464;50.558;9.704;2023-05-07T06:04:23;14.00;;;11.87;;
27161;SDS011;54464;50.558;9.704;2023-05-07T06:06:48;13.50;;;12.10;;
27161;SDS011;54464;50.558;9.704;2023-05-07T06:09:14;16.07;;;13.30;;
27161;SDS011;54464;50.558;9.704;2023-05-07T06:11:40;14.03;;;12.30;;
27161;SDS011;54464;50.558;9.704;2023-05-07T06:14:06;13.17;;;11.77;;
27161;SDS011;54464;50.558;9.704;2023-05-07T06:16:31;14.10;;;12.43;;
27161;SDS011;54464;50.558;9.704;2023-05-07T06:18:57;13.83;;;12.17;;
27161;SDS011;54464;50.558;9.704;2023-05-07T06:21:22;13.10;;;11.70;;
27161;SDS011;54464;50.558;9.704;2023-05-07T06:23:48;15.10;;;12.63;;
27161;SDS011;54464;50.558;9.704;2023-05-07T06:26:14;17.33;;;13.67;;
27161;SDS011;54464;50.558;9.704;2023-05-07T06:28:39;16.50;;;13.93;;
27161;SDS011;54464;50.558;9.704;2023-05-07T06:31:14;14.67;;;12.90;;
27161;SDS011;54464;50.558;9.704;2023-05-07T06:33:43;16.37;;;14.67;;
27161;SDS011;54464;50.558;9.704;2023-05-07T06:36:09;17.67;;;14.27;;
27161;SDS011;54464;50.558;9.704;2023-05-07T06:38:35;16.27;;;14.27;;
27161;SDS011;54464;50.558;9.704;2023-05-07T06:41:05;17.33;;;13.67;;
27161;SDS011;54464;50.558;9.704;2023-05-07T06:43:31;15.63;;;13.97;;
27161;SDS011;54464;50.558;9.704;2023-05-07T06:45:57;15.77;;;13.07;;
27161;SDS011;54464;50.558;9.704;2023-05-07T06:48:23;16.43;;;14.03;;
27161;SDS011;54464;50.558;9.704;2023-05-07T06:50:48;16.87;;;14.00;;
27161;SDS011;54464;50.558;9.704;2023-05-07T06:53:14;15.93;;;13.47;;
27161;SDS011;54464;50.558;9.704;2023-05-07T06:55:40;14.07;;;12.50;;
27161;SDS011;54464;50.558;9.704;2023-05-07T06:58:08;15.53;;;13.13;;
27161;SDS011;54464;50.558;9.704;2023-05-07T07:00:39;15.90;;;12.80;;
27161;SDS011;54464;50.558;9.704;2023-05-07T07:03:05;14.33;;;12.30;;
27161;SDS011;54464;50.558;9.704;2023-05-07T07:05:31;13.93;;;11.83;;
27161;SDS011;54464;50.558;9.704;2023-05-07T07:07:57;13.93;;;12.37;;
27161;SDS011;54464;50.558;9.704;2023-05-07T07:10:23;14.97;;;12.07;;
27161;SDS011;54464;50.558;9.704;2023-05-07T07:12:49;17.53;;;14.23;;
27161;SDS011;54464;50.558;9.704;2023-05-07T07:15:15;18.43;;;14.53;;
27161;SDS011;54464;50.558;9.704;2023-05-07T07:17:41;18.07;;;14.40;;
27161;SDS011;54464;50.558;9.704;2023-05-07T07:20:07;18.97;;;15.27;;
27161;SDS011;54464;50.558;9.704;2023-05-07T07:22:33;21.97;;;15.57;;
27161;SDS011;54464;50.558;9.704;2023-05-07T07:24:59;18.13;;;14.03;;
27161;SDS011;54464;50.558;9.704;2023-05-07T07:27:25;17.67;;;13.97;;
27161;SDS011;54464;50.558;9.704;2023-05-07T07:29:50;16.07;;;13.10;;
27161;SDS011;54464;50.558;9.704;2023-05-07T07:34:52;15.50;;;12.57;;
27161;SDS011;54464;50.558;9.704;2023-05-07T07:37:17;13.57;;;12.13;;
27161;SDS011;54464;50.558;9.704;2023-05-07T07:39:43;15.47;;;12.03;;
27161;SDS011;54464;50.558;9.704;2023-05-07T07:42:08;14.57;;;12.27;;
27161;SDS011;54464;50.558;9.704;2023-05-07T07:44:34;13.37;;;10.67;;
27161;SDS011;54464;50.558;9.704;2023-05-07T07:46:59;13.30;;;10.57;;
27161;SDS011;54464;50.558;9.704;2023-05-07T07:49:25;12.73;;;10.40;;
27161;SDS011;54464;50.558;9.704;2023-05-07T07:51:51;11.87;;;9.93;;
27161;SDS011;54464;50.558;9.704;2023-05-07T07:54:17;11.67;;;9.83;;
27161;SDS011;54464;50.558;9.704;2023-05-07T07:56:42;11.87;;;10.50;;
27161;SDS011;54464;50.558;9.704;2023-05-07T07:59:08;12.27;;;10.37;;
27161;SDS011;54464;50.558;9.704;2023-05-07T08:01:34;11.43;;;9.70;;
27161;SDS011;54464;50.558;9.704;2023-05-07T08:03:59;11.50;;;9.57;;
27161;SDS011;54464;50.558;9.704;2023-05-07T08:06:25;12.33;;;10.23;;
27161;SDS011;54464;50.558;9.704;2023-05-07T08:08:51;11.27;;;10.03;;
27161;SDS011;54464;50.558;9.704;2023-05-07T08:11:17;11.47;;;9.50;;
27161;SDS011;54464;50.558;9.704;2023-05-07T08:13:42;15.03;;;10.03;;
27161;SDS011;54464;50.558;9.704;2023-05-07T08:16:08;11.87;;;9.37;;
27161;SDS011;54464;50.558;9.704;2023-05-07T08:18:34;11.73;;;9.07;;
27161;SDS011;54464;50.558;9.704;2023-05-07T08:21:00;11.00;;;9.07;;
27161;SDS011;54464;50.558;9.704;2023-05-07T08:23:26;10.97;;;9.77;;
27161;SDS011;54464;50.558;9.704;2023-05-07T08:25:51;15.40;;;11.20;;
27161;SDS011;54464;50.558;9.704;2023-05-07T08:28:18;14.03;;;11.00;;
27161;SDS011;54464;50.558;9.704;2023-05-07T08:30:44;14.00;;;11.60;;
27161;SDS011;54464;50.558;9.704;2023-05-07T08:33:10;13.57;;;10.80;;
27161;SDS011;54464;50.558;9.704;2023-05-07T08:35:36;11.80;;;10.27;;
27161;SDS011;54464;50.558;9.704;2023-05-07T08:38:01;13.83;;;11.17;;
27161;SDS011;54464;50.558;9.704;2023-05-07T08:40:27;12.63;;;10.87;;
27161;SDS011;54464;50.558;9.704;2023-05-07T08:42:53;14.80;;;11.00;;
27161;SDS011;54464;50.558;9.704;2023-05-07T08:45:20;12.80;;;10.57;;
27161;SDS011;54464;50.558;9.704;2023-05-07T08:47:50;12.37;;;11.03;;
27161;SDS011;54464;50.558;9.704;2023-05-07T08:50:20;12.13;;;10.80;;
27161;SDS011;54464;50.558;9.704;2023-05-07T08:52:46;13.07;;;10.90;;
27161;SDS011;54464;50.558;9.704;2023-05-07T08:55:15;14.27;;;10.23;;
27161;SDS011;54464;50.558;9.704;2023-05-07T08:57:41;12.73;;;10.73;;
27161;SDS011;54464;50.558;9.704;2023-05-07T09:00:07;12.03;;;10.03;;
27161;SDS011;54464;50.558;9.704;2023-05-07T09:02:34;11.33;;;9.73;;
27161;SDS011;54464;50.558;9.704;2023-05-07T09:05:01;13.23;;;9.93;;
27161;SDS011;54464;50.558;9.704;2023-05-07T09:07:27;11.63;;;9.27;;
27161;SDS011;54464;50.558;9.704;2023-05-07T09:09:56;11.90;;;9.27;;
27161;SDS011;54464;50.558;9.704;2023-05-07T09:12:22;10.47;;;9.00;;
27161;SDS011;54464;50.558;9.704;2023-05-07T09:14:47;11.17;;;9.53;;
27161;SDS011;54464;50.558;9.704;2023-05-07T09:17:15;11.10;;;8.80;;
27161;SDS011;54464;50.558;9.704;2023-05-07T09:19:41;13.57;;;10.00;;
27161;SDS011;54464;50.558;9.704;2023-05-07T09:22:08;11.77;;;9.70;;
27161;SDS011;54464;50.558;9.704;2023-05-07T09:24:33;10.73;;;9.03;;
27161;SDS011;54464;50.558;9.704;2023-05-07T09:27:01;9.97;;;8.97;;
27161;SDS011;54464;50.558;9.704;2023-05-07T09:29:27;9.47;;;8.57;;
27161;SDS011;54464;50.558;9.704;2023-05-07T09:32:05;9.60;;;8.30;;
27161;SDS011;54464;50.558;9.704;2023-05-07T09:34:31;9.60;;;8.60;;
27161;SDS011;54464;50.558;9.704;2023-05-07T09:37:03;11.50;;;8.33;;
27161;SDS011;54464;50.558;9.704;2023-05-07T09:42:09;9.40;;;8.40;;
27161;SDS011;54464;50.558;9.704;2023-05-07T09:44:36;8.80;;;7.60;;
27161;SDS011;54464;50.558;9.704;2023-05-07T09:47:04;9.03;;;8.13;;
27161;SDS011;54464;50.558;9.704;2023-05-07T09:49:33;9.87;;;8.23;;
27161;SDS011;54464;50.558;9.704;2023-05-07T09:52:03;8.17;;;7.37;;
27161;SDS011;54464;50.558;9.704;2023-05-07T09:54:31;9.87;;;8.37;;
27161;SDS011;54464;50.558;9.704;2023-05-07T09:57:02;9.47;;;8.20;;
27161;SDS011;54464;50.558;9.704;2023-05-07T09:59:29;9.60;;;8.40;;
27161;SDS011;54464;50.558;9.704;2023-05-07T10:01:58;9.47;;;7.63;;
27161;SDS011;54464;50.558;9.704;2023-05-07T10:04:27;9.37;;;8.00;;
27161;SDS011;54464;50.558;9.704;2023-05-07T10:06:53;8.90;;;8.00;;
27161;SDS011;54464;50.558;9.704;2023-05-07T10:09:20;9.20;;;7.60;;
27161;SDS011;54464;50.558;9.704;2023-05-07T10:11:47;8.33;;;7.07;;
27161;SDS011;54464;50.558;9.704;2023-05-07T10:14:15;8.87;;;7.40;;
27161;SDS011;54464;50.558;9.704;2023-05-07T10:16:41;8.83;;;7.17;;
27161;SDS011;54464;50.558;9.704;2023-05-07T10:19:07;7.27;;;6.40;;
27161;SDS011;54464;50.558;9.704;2023-05-07T10:21:37;6.97;;;6.27;;
27161;SDS011;54464;50.558;9.704;2023-05-07T10:24:20;7.13;;;6.43;;
27161;SDS011;54464;50.558;9.704;2023-05-07T10:26:49;7.00;;;6.30;;
27161;SDS011;54464;50.558;9.704;2023-05-07T10:31:56;6.47;;;5.78;;
27161;SDS011;54464;50.558;9.704;2023-05-07T10:34:39;6.13;;;5.47;;
27161;SDS011;54464;50.558;9.704;2023-05-07T10:37:08;6.63;;;5.88;;
27161;SDS011;54464;50.558;9.704;2023-05-07T10:39:35;7.13;;;6.43;;
27161;SDS011;54464;50.558;9.704;2023-05-07T10:42:11;6.85;;;5.80;;
27161;SDS011;54464;50.558;9.704;2023-05-07T10:44:37;7.22;;;5.53;;
27161;SDS011;54464;50.558;9.704;2023-05-07T10:47:09;6.50;;;5.72;;
27161;SDS011;54464;50.558;9.704;2023-05-07T10:49:37;6.28;;;5.30;;
27161;SDS011;54464;50.558;9.704;2023-05-07T10:52:12;7.93;;;5.97;;
27161;SDS011;54464;50.558;9.704;2023-05-07T10:54:39;6.20;;;5.57;;
27161;SDS011;54464;50.558;9.704;2023-05-07T10:57:32;5.97;;;5.38;;
27161;SDS011;54464;50.558;9.704;2023-05-07T11:05:24;6.05;;;5.45;;
27161;SDS011;54464;50.558;9.704;2023-05-07T11:07:56;6.55;;;5.78;;
27161;SDS011;54464;50.558;9.704;2023-05-07T11:10:23;7.43;;;5.57;;
27161;SDS011;54464;50.558;9.704;2023-05-07T11:13:19;6.65;;;5.72;;
27161;SDS011;54464;50.558;9.704;2023-05-07T11:16:19;5.70;;;4.95;;
27161;SDS011;54464;50.558;9.704;2023-05-07T11:18:53;5.78;;;5.20;;
27161;SDS011;54464;50.558;9.704;2023-05-07T11:24:05;5.63;;;5.03;;
27161;SDS011;54464;50.558;9.704;2023-05-07T11:29:27;6.15;;;5.50;;
27161;SDS011;54464;50.558;9.704;2023-05-07T11:31:54;5.75;;;5.18;;
27161;SDS011;54464;50.558;9.704;2023-05-07T11:34:24;6.82;;;5.70;;
27161;SDS011;54464;50.558;9.704;2023-05-07T11:36:51;5.80;;;5.20;;
27161;SDS011;54464;50.558;9.704;2023-05-07T11:44:55;5.22;;;4.70;;
27161;SDS011;54464;50.558;9.704;2023-05-07T11:47:22;6.03;;;4.97;;
27161;SDS011;54464;50.558;9.704;2023-05-07T11:49:48;6.03;;;5.43;;
27161;SDS011;54464;50.558;9.704;2023-05-07T11:52:15;6.00;;;5.40;;
27161;SDS011;54464;50.558;9.704;2023-05-07T11:54:48;5.85;;;5.25;;
27161;SDS011;54464;50.558;9.704;2023-05-07T11:57:17;5.90;;;5.40;;
27161;SDS011;54464;50.558;9.704;2023-05-07T11:59:43;6.32;;;5.05;;
27161;SDS011;54464;50.558;9.704;2023-05-07T12:02:16;5.78;;;5.00;;
27161;SDS011;54464;50.558;9.704;2023-05-07T12:04:42;5.50;;;5.00;;
27161;SDS011;54464;50.558;9.704;2023-05-07T12:07:12;5.30;;;4.75;;
27161;SDS011;54464;50.558;9.704;2023-05-07T12:09:41;5.60;;;5.05;;
27161;SDS011;54464;50.558;9.704;2023-05-07T12:12:08;6.03;;;5.43;;
27161;SDS011;54464;50.558;9.704;2023-05-07T12:14:40;6.53;;;5.10;;
27161;SDS011;54464;50.558;9.704;2023-05-07T12:17:07;6.13;;;5.53;;
27161;SDS011;54464;50.558;9.704;2023-05-07T12:19:34;5.15;;;4.65;;
27161;SDS011;54464;50.558;9.704;2023-05-07T12:22:01;7.20;;;5.38;;
27161;SDS011;54464;50.558;9.704;2023-05-07T12:24:28;6.15;;;5.00;;
27161;SDS011;54464;50.558;9.704;2023-05-07T12:26:53;5.32;;;4.82;;
27161;SDS011;54464;50.558;9.704;2023-05-07T12:29:22;4.85;;;4.40;;
27161;SDS011;54464;50.558;9.704;2023-05-07T12:31:49;6.20;;;5.60;;
27161;SDS011;54464;50.558;9.704;2023-05-07T12:34:15;5.43;;;4.93;;
27161;SDS011;54464;50.558;9.704;2023-05-07T12:36:41;5.28;;;4.78;;
27161;SDS011;54464;50.558;9.704;2023-05-07T12:39:07;4.82;;;4.35;;
27161;SDS011;54464;50.558;9.704;2023-05-07T12:41:52;4.75;;;4.28;;
27161;SDS011;54464;50.558;9.704;2023-05-07T12:44:21;5.10;;;4.35;;
27161;SDS011;54464;50.558;9.704;2023-05-07T12:46:48;5.60;;;5.10;;
27161;SDS011;54464;50.558;9.704;2023-05-07T12:49:14;5.57;;;5.07;;
27161;SDS011;54464;50.558;9.704;2023-05-07T12:51:39;6.70;;;5.47;;
27161;SDS011;54464;50.558;9.704;2023-05-07T12:54:05;6.80;;;5.95;;
27161;SDS011;54464;50.558;9.704;2023-05-07T12:56:31;6.63;;;5.20;;
27161;SDS011;54464;50.558;9.704;2023-05-07T12:58:57;6.38;;;5.78;;
27161;SDS011;54464;50.558;9.704;2023-05-07T13:01:28;6.00;;;5.13;;
27161;SDS011;54464;50.558;9.704;2023-05-07T13:03:55;5.88;;;5.28;;
27161;SDS011;54464;50.558;9.704;2023-05-07T13:06:21;5.75;;;4.82;;
27161;SDS011;54464;50.558;9.704;2023-05-07T13:08:46;6.22;;;5.00;;
27161;SDS011;54464;50.558;9.704;2023-05-07T13:11:12;6.00;;;4.53;;
27161;SDS011;54464;50.558;9.704;2023-05-07T13:13:38;5.85;;;5.25;;
27161;SDS011;54464;50.558;9.704;2023-05-07T13:16:05;5.38;;;4.88;;
27161;SDS011;54464;50.558;9.704;2023-05-07T13:18:33;4.90;;;4.40;;
27161;SDS011;54464;50.558;9.704;2023-05-07T13:20:59;4.72;;;4.28;;
27161;SDS011;54464;50.558;9.704;2023-05-07T13:23:26;4.80;;;4.40;;
27161;SDS011;54464;50.558;9.704;2023-05-07T13:25:52;4.75;;;4.25;;
27161;SDS011;54464;50.558;9.704;2023-05-07T13:28:22;4.60;;;4.13;;
27161;SDS011;54464;50.558;9.704;2023-05-07T13:30:50;4.38;;;3.97;;
27161;SDS011;54464;50.558;9.704;2023-05-07T13:33:17;4.57;;;4.18;;
27161;SDS011;54464;50.558;9.704;2023-05-07T13:35:43;4.80;;;4.40;;
27161;SDS011;54464;50.558;9.704;2023-05-07T13:38:09;6.47;;;4.80;;
27161;SDS011;54464;50.558;9.704;2023-05-07T13:40:35;5.30;;;4.60;;
27161;SDS011;54464;50.558;9.704;2023-05-07T13:43:01;5.40;;;4.40;;
27161;SDS011;54464;50.558;9.704;2023-05-07T13:45:29;4.50;;;4.10;;
27161;SDS011;54464;50.558;9.704;2023-05-07T13:47:55;5.18;;;4.68;;
27161;SDS011;54464;50.558;9.704;2023-05-07T13:50:21;5.45;;;4.85;;
27161;SDS011;54464;50.558;9.704;2023-05-07T13:52:47;5.68;;;4.57;;
27161;SDS011;54464;50.558;9.704;2023-05-07T13:55:17;5.20;;;4.70;;
27161;SDS011;54464;50.558;9.704;2023-05-07T13:57:43;4.70;;;4.30;;
27161;SDS011;54464;50.558;9.704;2023-05-07T14:00:09;4.47;;;4.07;;
27161;SDS011;54464;50.558;9.704;2023-05-07T14:02:35;5.15;;;4.07;;
27161;SDS011;54464;50.558;9.704;2023-05-07T14:05:00;4.28;;;3.88;;
27161;SDS011;54464;50.558;9.704;2023-05-07T14:07:26;4.82;;;4.18;;
27161;SDS011;54464;50.558;9.704;2023-05-07T14:09:52;4.47;;;4.05;;
27161;SDS011;54464;50.558;9.704;2023-05-07T14:12:17;4.57;;;4.18;;
27161;SDS011;54464;50.558;9.704;2023-05-07T14:14:43;4.35;;;3.95;;
27161;SDS011;54464;50.558;9.704;2023-05-07T14:17:08;5.10;;;4.50;;
27161;SDS011;54464;50.558;9.704;2023-05-07T14:19:34;4.55;;;4.15;;
27161;SDS011;54464;50.558;9.704;2023-05-07T14:22:00;4.65;;;4.10;;
27161;SDS011;54464;50.558;9.704;2023-05-07T14:24:25;4.70;;;4.18;;
27161;SDS011;54464;50.558;9.704;2023-05-07T14:26:51;5.25;;;4.30;;
27161;SDS011;54464;50.558;9.704;2023-05-07T14:29:16;5.07;;;4.57;;
27161;SDS011;54464;50.558;9.704;2023-05-07T14:31:44;6.03;;;4.47;;
27161;SDS011;54464;50.558;9.704;2023-05-07T14:34:10;4.65;;;4.18;;
27161;SDS011;54464;50.558;9.704;2023-05-07T14:36:35;5.20;;;4.07;;
27161;SDS011;54464;50.558;9.704;2023-05-07T14:39:02;4.30;;;3.90;;
27161;SDS011;54464;50.558;9.704;2023-05-07T14:41:28;4.70;;;4.28;;
27161;SDS011;54464;50.558;9.704;2023-05-07T14:43:54;4.70;;;4.20;;
27161;SDS011;54464;50.558;9.704;2023-05-07T14:46:19;5.97;;;5.38;;
27161;SDS011;54464;50.558;9.704;2023-05-07T14:48:45;5.57;;;5.03;;
27161;SDS011;54464;50.558;9.704;2023-05-07T14:51:11;4.88;;;4.35;;
27161;SDS011;54464;50.558;9.704;2023-05-07T14:53:37;4.53;;;4.13;;
27161;SDS011;54464;50.558;9.704;2023-05-07T14:56:03;5.20;;;4.70;;
27161;SDS011;54464;50.558;9.704;2023-05-07T14:58:30;4.93;;;4.35;;
27161;SDS011;54464;50.558;9.704;2023-05-07T15:00:55;5.15;;;4.65;;
27161;SDS011;54464;50.558;9.704;2023-05-07T15:03:21;5.18;;;4.68;;